sensor_id;sensor_type;location;lat;lon;timestamp;temperature;humidity
2571;DHT22;1295;51.130;6.732;2023-07-20T00:01:20;22.50;99.90
2571;DHT22;1295;51.130;6.732;2023-07-20T00:03:46;22.50;99.90
2571;DHT22;1295;51.130;6.732;2023-07-20T00:06:11;22.50;99.90
2571;DHT22;1295;51.130;6.732;2023-07-20T00:08:38;22.40;99.90
2571;DHT22;1295;51.130;6.732;2023-07-20T00:11:03;22.40;99.90
2571;DHT22;1295;51.130;6.732;2023-07-20T00:13:29;22.40;99.90
2571;DHT22;1295;51.130;6.732;2023-07-20T00:15:54;22.40;99.90
2571;DHT22;1295;51.130;6.732;2023-07-20T00:18:20;22.40;99.90
2571;DHT22;1295;51.130;6.732;2023-07-20T00:20:46;22.40;99.90
2571;DHT22;1295;51.130;6.732;2023-07-20T00:23:11;22.40;99.90
2571;DHT22;1295;51.130;6.732;2023-07-20T00:25:37;22.40;99.90
2571;DHT22;1295;51.130;6.732;2023-07-20T00:28:03;22.40;99.90
2571;DHT22;1295;51.130;6.732;2023-07-20T00:30:29;22.30;99.90
2571;DHT22;1295;51.130;6.732;2023-07-20T00:32:55;22.30;99.90
2571;DHT22;1295;51.130;6.732;2023-07-20T00:35:21;22.30;99.90
2571;DHT22;1295;51.130;6.732;2023-07-20T00:37:47;22.30;99.90
2571;DHT22;1295;51.130;6.732;2023-07-20T00:40:13;22.30;99.90
2571;DHT22;1295;51.130;6.732;2023-07-20T00:42:39;22.30;99.90
2571;DHT22;1295;51.130;6.732;2023-07-20T00:45:06;22.30;99.90
2571;DHT22;1295;51.130;6.732;2023-07-20T00:47:31;22.30;99.90
2571;DHT22;1295;51.130;6.732;2023-07-20T00:49:57;22.30;99.90
2571;DHT22;1295;51.130;6.732;2023-07-20T00:52:23;22.20;99.90
2571;DHT22;1295;51.130;6.732;2023-07-20T00:54:49;22.20;99.90
2571;DHT22;1295;51.130;6.732;2023-07-20T00:57:15;22.20;99.90
2571;DHT22;1295;51.130;6.732;2023-07-20T00:59:40;22.20;99.90
2571;DHT22;1295;51.130;6.732;2023-07-20T01:02:06;22.20;99.90
2571;DHT22;1295;51.130;6.732;2023-07-20T01:04:32;22.20;99.90
2571;DHT22;1295;51.130;6.732;2023-07-20T01:07:16;22.20;99.90
2571;DHT22;1295;51.130;6.732;2023-07-20T01:09:48;22.20;99.90
2571;DHT22;1295;51.130;6.732;2023-07-20T01:12:20;22.20;99.90
2571;DHT22;1295;51.130;6.732;2023-07-20T01:14:44;22.20;99.90
2571;DHT22;1295;51.130;6.732;2023-07-20T01:17:09;22.10;99.90
2571;DHT22;1295;51.130;6.732;2023-07-20T01:19:40;22.10;99.90
2571;DHT22;1295;51.130;6.732;2023-07-20T01:22:09;21.80;99.90
2571;DHT22;1295;51.130;6.732;2023-07-20T01:24:39;21.90;99.90
2571;DHT22;1295;51.130;6.732;2023-07-20T01:27:32;20.30;99.90
2571;DHT22;1295;51.130;6.732;2023-07-20T01:32:36;20.00;99.90
2571;DHT22;1295;51.130;6.732;2023-07-20T01:35:01;20.10;99.90
2571;DHT22;1295;51.130;6.732;2023-07-20T01:37:28;21.10;99.90
2571;DHT22;1295;51.130;6.732;2023-07-20T01:39:53;21.10;99.90
2571;DHT22;1295;51.130;6.732;2023-07-20T01:42:20;21.60;99.90
2571;DHT22;1295;51.130;6.732;2023-07-20T01:44:45;21.50;99.90
2571;DHT22;1295;51.130;6.732;2023-07-20T01:47:11;21.10;99.90
2571;DHT22;1295;51.130;6.732;2023-07-20T01:49:37;21.20;99.90
2571;DHT22;1295;51.130;6.732;2023-07-20T01:52:03;20.80;99.90
2571;DHT22;1295;51.130;6.732;2023-07-20T01:54:29;21.10;99.90
2571;DHT22;1295;51.130;6.732;2023-07-20T01:56:55;21.80;99.90
2571;DHT22;1295;51.130;6.732;2023-07-20T01:59:21;21.70;99.90
2571;DHT22;1295;51.130;6.732;2023-07-20T02:01:46;21.80;99.90
2571;DHT22;1295;51.130;6.732;2023-07-20T02:04:12;21.90;99.90
2571;DHT22;1295;51.130;6.732;2023-07-20T02:06:38;21.90;99.90
2571;DHT22;1295;51.130;6.732;2023-07-20T02:09:03;21.80;99.90
2571;DHT22;1295;51.130;6.732;2023-07-20T02:11:29;21.50;99.90
2571;DHT22;1295;51.130;6.732;2023-07-20T02:13:55;21.70;99.90
2571;DHT22;1295;51.130;6.732;2023-07-20T02:16:20;21.80;99.90
2571;DHT22;1295;51.130;6.732;2023-07-20T02:18:47;21.20;99.90
2571;DHT22;1295;51.130;6.732;2023-07-20T02:21:12;21.10;99.90
2571;DHT22;1295;51.130;6.732;2023-07-20T02:23:39;20.70;99.90
2571;DHT22;1295;51.130;6.732;2023-07-20T02:26:04;20.70;99.90
2571;DHT22;1295;51.130;6.732;2023-07-20T02:28:31;20.80;99.90
2571;DHT22;1295;51.130;6.732;2023-07-20T02:30:56;20.80;99.90
2571;DHT22;1295;51.130;6.732;2023-07-20T02:33:22;21.20;99.90
2571;DHT22;1295;51.130;6.732;2023-07-20T02:35:48;20.40;99.90
2571;DHT22;1295;51.130;6.732;2023-07-20T02:38:13;20.10;99.90
2571;DHT22;1295;51.130;6.732;2023-07-20T02:40:39;20.10;99.90
2571;DHT22;1295;51.130;6.732;2023-07-20T02:43:04;20.70;99.90
2571;DHT22;1295;51.130;6.732;2023-07-20T02:45:31;21.30;99.90
2571;DHT22;1295;51.130;6.732;2023-07-20T02:47:56;21.30;99.90
2571;DHT22;1295;51.130;6.732;2023-07-20T02:50:22;21.50;99.90
2571;DHT22;1295;51.130;6.732;2023-07-20T02:52:49;21.60;99.90
2571;DHT22;1295;51.130;6.732;2023-07-20T02:55:14;21.60;99.90
2571;DHT22;1295;51.130;6.732;2023-07-20T02:57:40;21.00;99.90
2571;DHT22;1295;51.130;6.732;2023-07-20T03:00:07;20.70;99.90
2571;DHT22;1295;51.130;6.732;2023-07-20T03:02:32;21.10;99.90
2571;DHT22;1295;51.130;6.732;2023-07-20T03:04:58;21.30;99.90
2571;DHT22;1295;51.130;6.732;2023-07-20T03:07:24;21.30;99.90
2571;DHT22;1295;51.130;6.732;2023-07-20T03:09:49;21.30;99.90
2571;DHT22;1295;51.130;6.732;2023-07-20T03:12:15;20.80;99.90
2571;DHT22;1295;51.130;6.732;2023-07-20T03:14:41;21.30;99.90
2571;DHT22;1295;51.130;6.732;2023-07-20T03:17:08;21.40;99.90
2571;DHT22;1295;51.130;6.732;2023-07-20T03:19:33;21.40;99.90
2571;DHT22;1295;51.130;6.732;2023-07-20T03:21:59;20.80;99.90
2571;DHT22;1295;51.130;6.732;2023-07-20T03:24:24;20.40;99.90
2571;DHT22;1295;51.130;6.732;2023-07-20T03:26:50;20.60;99.90
2571;DHT22;1295;51.130;6.732;2023-07-20T03:29:16;21.10;99.90
2571;DHT22;1295;51.130;6.732;2023-07-20T03:31:41;21.30;99.90
2571;DHT22;1295;51.130;6.732;2023-07-20T03:34:07;21.10;99.90
2571;DHT22;1295;51.130;6.732;2023-07-20T03:36:33;21.00;99.90
2571;DHT22;1295;51.130;6.732;2023-07-20T03:38:58;20.20;99.90
2571;DHT22;1295;51.130;6.732;2023-07-20T03:41:24;19.60;99.90
2571;DHT22;1295;51.130;6.732;2023-07-20T03:43:49;20.10;99.90
2571;DHT22;1295;51.130;6.732;2023-07-20T03:46:15;18.90;99.90
2571;DHT22;1295;51.130;6.732;2023-07-20T03:48:41;18.40;99.90
2571;DHT22;1295;51.130;6.732;2023-07-20T03:51:07;19.60;99.90
2571;DHT22;1295;51.130;6.732;2023-07-20T03:53:33;19.60;99.90
2571;DHT22;1295;51.130;6.732;2023-07-20T03:55:58;19.20;99.90
2571;DHT22;1295;51.130;6.732;2023-07-20T03:58:24;19.10;99.90
2571;DHT22;1295;51.130;6.732;2023-07-20T04:00:51;20.00;99.90
2571;DHT22;1295;51.130;6.732;2023-07-20T04:03:16;20.30;99.90
2571;DHT22;1295;51.130;6.732;2023-07-20T04:05:41;20.80;99.90
2571;DHT22;1295;51.130;6.732;2023-07-20T04:08:07;20.10;99.90
2571;DHT22;1295;51.130;6.732;2023-07-20T04:10:33;18.70;99.90
2571;DHT22;1295;51.130;6.732;2023-07-20T04:12:59;18.70;99.90
2571;DHT22;1295;51.130;6.732;2023-07-20T04:15:24;19.20;99.90
2571;DHT22;1295;51.130;6.732;2023-07-20T04:17:50;19.10;99.90
2571;DHT22;1295;51.130;6.732;2023-07-20T04:20:16;19.30;99.90
2571;DHT22;1295;51.130;6.732;2023-07-20T04:22:41;19.70;99.90
2571;DHT22;1295;51.130;6.732;2023-07-20T04:25:08;20.70;99.90
2571;DHT22;1295;51.130;6.732;2023-07-20T04:27:33;20.70;99.90
2571;DHT22;1295;51.130;6.732;2023-07-20T04:29:59;20.60;99.90
2571;DHT22;1295;51.130;6.732;2023-07-20T04:32:25;20.40;99.90
2571;DHT22;1295;51.130;6.732;2023-07-20T04:34:51;20.40;99.90
2571;DHT22;1295;51.130;6.732;2023-07-20T04:37:17;20.30;99.90
2571;DHT22;1295;51.130;6.732;2023-07-20T04:39:43;20.30;99.90
2571;DHT22;1295;51.130;6.732;2023-07-20T04:42:09;20.40;99.90
2571;DHT22;1295;51.130;6.732;2023-07-20T04:44:34;20.70;99.90
2571;DHT22;1295;51.130;6.732;2023-07-20T04:47:00;20.60;99.90
2571;DHT22;1295;51.130;6.732;2023-07-20T04:49:26;20.80;99.90
2571;DHT22;1295;51.130;6.732;2023-07-20T04:51:51;21.00;99.90
2571;DHT22;1295;51.130;6.732;2023-07-20T04:54:17;20.90;99.90
2571;DHT22;1295;51.130;6.732;2023-07-20T04:56:42;21.00;99.90
2571;DHT22;1295;51.130;6.732;2023-07-20T04:59:09;21.00;99.90
2571;DHT22;1295;51.130;6.732;2023-07-20T05:01:35;21.00;99.90
2571;DHT22;1295;51.130;6.732;2023-07-20T05:04:00;21.00;99.90
2571;DHT22;1295;51.130;6.732;2023-07-20T05:06:26;21.00;99.90
2571;DHT22;1295;51.130;6.732;2023-07-20T05:08:52;20.90;99.90
2571;DHT22;1295;51.130;6.732;2023-07-20T05:11:18;20.90;99.90
2571;DHT22;1295;51.130;6.732;2023-07-20T05:13:44;21.00;99.90
2571;DHT22;1295;51.130;6.732;2023-07-20T05:16:09;21.00;99.90
2571;DHT22;1295;51.130;6.732;2023-07-20T05:18:35;20.40;99.90
2571;DHT22;1295;51.130;6.732;2023-07-20T05:21:00;20.70;99.90
2571;DHT22;1295;51.130;6.732;2023-07-20T05:23:26;21.00;99.90
2571;DHT22;1295;51.130;6.732;2023-07-20T05:25:56;21.00;99.90
2571;DHT22;1295;51.130;6.732;2023-07-20T05:28:22;20.80;99.90
2571;DHT22;1295;51.130;6.732;2023-07-20T05:30:47;20.20;99.90
2571;DHT22;1295;51.130;6.732;2023-07-20T05:33:13;20.70;99.90
2571;DHT22;1295;51.130;6.732;2023-07-20T05:35:38;20.80;99.90
2571;DHT22;1295;51.130;6.732;2023-07-20T05:38:05;21.00;99.90
2571;DHT22;1295;51.130;6.732;2023-07-20T05:40:30;21.00;99.90
2571;DHT22;1295;51.130;6.732;2023-07-20T05:42:56;21.00;99.90
2571;DHT22;1295;51.130;6.732;2023-07-20T05:45:22;20.90;99.90
2571;DHT22;1295;51.130;6.732;2023-07-20T05:47:47;20.40;99.90
2571;DHT22;1295;51.130;6.732;2023-07-20T05:50:13;20.70;99.90
2571;DHT22;1295;51.130;6.732;2023-07-20T05:52:39;20.70;99.90
2571;DHT22;1295;51.130;6.732;2023-07-20T05:55:05;19.70;99.90
2571;DHT22;1295;51.130;6.732;2023-07-20T05:57:32;20.70;99.90
2571;DHT22;1295;51.130;6.732;2023-07-20T05:59:57;20.70;99.90
2571;DHT22;1295;51.130;6.732;2023-07-20T06:02:23;20.90;99.90
2571;DHT22;1295;51.130;6.732;2023-07-20T06:04:48;20.70;99.90
2571;DHT22;1295;51.130;6.732;2023-07-20T06:07:14;20.80;99.90
2571;DHT22;1295;51.130;6.732;2023-07-20T06:09:40;20.90;99.90
2571;DHT22;1295;51.130;6.732;2023-07-20T06:12:07;21.00;99.90
2571;DHT22;1295;51.130;6.732;2023-07-20T06:14:34;21.00;99.90
2571;DHT22;1295;51.130;6.732;2023-07-20T06:16:59;21.00;99.90
2571;DHT22;1295;51.130;6.732;2023-07-20T06:19:25;20.10;99.90
2571;DHT22;1295;51.130;6.732;2023-07-20T06:21:51;19.70;99.90
2571;DHT22;1295;51.130;6.732;2023-07-20T06:24:16;19.50;99.90
2571;DHT22;1295;51.130;6.732;2023-07-20T06:26:42;19.10;99.90
2571;DHT22;1295;51.130;6.732;2023-07-20T06:29:08;19.70;99.90
2571;DHT22;1295;51.130;6.732;2023-07-20T06:31:33;20.60;99.90
2571;DHT22;1295;51.130;6.732;2023-07-20T06:34:00;20.90;99.90
2571;DHT22;1295;51.130;6.732;2023-07-20T06:36:25;20.90;99.90
2571;DHT22;1295;51.130;6.732;2023-07-20T06:38:53;20.80;99.90
2571;DHT22;1295;51.130;6.732;2023-07-20T06:41:18;20.80;99.90
2571;DHT22;1295;51.130;6.732;2023-07-20T06:43:45;20.90;99.90
2571;DHT22;1295;51.130;6.732;2023-07-20T06:46:10;20.90;99.90
2571;DHT22;1295;51.130;6.732;2023-07-20T06:48:36;20.60;99.90
2571;DHT22;1295;51.130;6.732;2023-07-20T06:51:02;20.80;99.90
2571;DHT22;1295;51.130;6.732;2023-07-20T06:53:28;20.90;99.90
2571;DHT22;1295;51.130;6.732;2023-07-20T06:55:53;20.70;99.90
2571;DHT22;1295;51.130;6.732;2023-07-20T06:58:19;20.80;99.90
2571;DHT22;1295;51.130;6.732;2023-07-20T07:00:45;20.60;99.90
2571;DHT22;1295;51.130;6.732;2023-07-20T07:03:11;20.60;99.90
2571;DHT22;1295;51.130;6.732;2023-07-20T07:05:37;20.80;99.90
2571;DHT22;1295;51.130;6.732;2023-07-20T07:08:04;20.80;99.90
2571;DHT22;1295;51.130;6.732;2023-07-20T07:10:29;20.80;99.90
2571;DHT22;1295;51.130;6.732;2023-07-20T07:12:54;20.90;99.90
2571;DHT22;1295;51.130;6.732;2023-07-20T07:15:20;20.90;99.90
2571;DHT22;1295;51.130;6.732;2023-07-20T07:17:46;20.70;99.90
2571;DHT22;1295;51.130;6.732;2023-07-20T07:20:11;20.40;99.90
2571;DHT22;1295;51.130;6.732;2023-07-20T07:22:37;20.80;99.90
2571;DHT22;1295;51.130;6.732;2023-07-20T07:25:03;21.00;99.90
2571;DHT22;1295;51.130;6.732;2023-07-20T07:27:29;20.80;99.90
2571;DHT22;1295;51.130;6.732;2023-07-20T07:29:54;20.80;99.90
2571;DHT22;1295;51.130;6.732;2023-07-20T07:32:20;20.90;99.90
2571;DHT22;1295;51.130;6.732;2023-07-20T07:34:46;20.90;99.90
2571;DHT22;1295;51.130;6.732;2023-07-20T07:37:11;20.70;99.90
2571;DHT22;1295;51.130;6.732;2023-07-20T07:39:37;20.90;99.90
2571;DHT22;1295;51.130;6.732;2023-07-20T07:42:03;20.90;99.90
2571;DHT22;1295;51.130;6.732;2023-07-20T07:44:28;20.90;99.90
2571;DHT22;1295;51.130;6.732;2023-07-20T07:46:54;20.90;99.90
2571;DHT22;1295;51.130;6.732;2023-07-20T07:49:20;20.90;99.90
2571;DHT22;1295;51.130;6.732;2023-07-20T07:51:45;20.90;99.90
2571;DHT22;1295;51.130;6.732;2023-07-20T07:54:11;20.90;99.90
2571;DHT22;1295;51.130;6.732;2023-07-20T07:56:37;20.90;99.90
2571;DHT22;1295;51.130;6.732;2023-07-20T07:59:02;21.00;99.90
2571;DHT22;1295;51.130;6.732;2023-07-20T08:01:28;21.00;99.90
2571;DHT22;1295;51.130;6.732;2023-07-20T08:03:53;20.90;99.90
2571;DHT22;1295;51.130;6.732;2023-07-20T08:06:19;21.20;99.90
2571;DHT22;1295;51.130;6.732;2023-07-20T08:08:45;21.20;99.90
2571;DHT22;1295;51.130;6.732;2023-07-20T08:11:10;21.20;99.90
2571;DHT22;1295;51.130;6.732;2023-07-20T08:13:36;21.20;99.90
2571;DHT22;1295;51.130;6.732;2023-07-20T08:16:02;21.10;99.90
2571;DHT22;1295;51.130;6.732;2023-07-20T08:18:28;21.00;99.90
2571;DHT22;1295;51.130;6.732;2023-07-20T08:20:53;21.00;99.90
2571;DHT22;1295;51.130;6.732;2023-07-20T08:23:19;21.00;99.90
2571;DHT22;1295;51.130;6.732;2023-07-20T08:25:45;21.20;99.90
2571;DHT22;1295;51.130;6.732;2023-07-20T08:28:11;21.10;99.90
2571;DHT22;1295;51.130;6.732;2023-07-20T08:30:41;21.20;99.90
2571;DHT22;1295;51.130;6.732;2023-07-20T08:33:06;21.20;99.90
2571;DHT22;1295;51.130;6.732;2023-07-20T08:35:32;21.20;99.90
2571;DHT22;1295;51.130;6.732;2023-07-20T08:37:57;21.30;99.90
2571;DHT22;1295;51.130;6.732;2023-07-20T08:40:23;21.30;99.90
2571;DHT22;1295;51.130;6.732;2023-07-20T08:42:49;21.20;99.90
2571;DHT22;1295;51.130;6.732;2023-07-20T08:45:15;21.20;99.90
2571;DHT22;1295;51.130;6.732;2023-07-20T08:47:41;21.20;99.90
2571;DHT22;1295;51.130;6.732;2023-07-20T08:50:07;21.50;99.90
2571;DHT22;1295;51.130;6.732;2023-07-20T08:52:34;21.50;99.90
2571;DHT22;1295;51.130;6.732;2023-07-20T08:54:59;21.70;99.90
2571;DHT22;1295;51.130;6.732;2023-07-20T08:57:25;21.60;99.90
2571;DHT22;1295;51.130;6.732;2023-07-20T08:59:51;21.60;99.90
2571;DHT22;1295;51.130;6.732;2023-07-20T09:02:16;21.50;99.90
2571;DHT22;1295;51.130;6.732;2023-07-20T09:04:44;21.70;99.90
2571;DHT22;1295;51.130;6.732;2023-07-20T09:07:09;21.70;99.90
2571;DHT22;1295;51.130;6.732;2023-07-20T09:09:39;21.60;99.90
2571;DHT22;1295;51.130;6.732;2023-07-20T09:12:01;21.40;99.90
2571;DHT22;1295;51.130;6.732;2023-07-20T09:14:27;21.50;99.90
2571;DHT22;1295;51.130;6.732;2023-07-20T09:16:53;21.50;99.90
2571;DHT22;1295;51.130;6.732;2023-07-20T09:19:19;21.50;99.90
2571;DHT22;1295;51.130;6.732;2023-07-20T09:21:46;21.40;99.90
2571;DHT22;1295;51.130;6.732;2023-07-20T09:24:11;21.30;99.90
2571;DHT22;1295;51.130;6.732;2023-07-20T09:26:40;21.50;99.90
2571;DHT22;1295;51.130;6.732;2023-07-20T09:29:05;21.50;99.90
2571;DHT22;1295;51.130;6.732;2023-07-20T09:31:27;21.60;99.90
2571;DHT22;1295;51.130;6.732;2023-07-20T09:33:53;22.10;99.90
2571;DHT22;1295;51.130;6.732;2023-07-20T09:36:19;21.70;99.90
2571;DHT22;1295;51.130;6.732;2023-07-20T09:38:45;21.70;99.90
2571;DHT22;1295;51.130;6.732;2023-07-20T09:41:13;21.70;99.90
2571;DHT22;1295;51.130;6.732;2023-07-20T09:43:38;21.90;99.90
2571;DHT22;1295;51.130;6.732;2023-07-20T09:46:05;21.90;99.90
2571;DHT22;1295;51.130;6.732;2023-07-20T09:48:31;21.80;99.90
2571;DHT22;1295;51.130;6.732;2023-07-20T09:50:57;21.70;99.90
2571;DHT22;1295;51.130;6.732;2023-07-20T09:53:23;21.60;99.90
2571;DHT22;1295;51.130;6.732;2023-07-20T09:55:48;21.60;99.90
2571;DHT22;1295;51.130;6.732;2023-07-20T09:58:14;21.80;99.90
2571;DHT22;1295;51.130;6.732;2023-07-20T10:00:40;21.90;99.90
2571;DHT22;1295;51.130;6.732;2023-07-20T10:03:05;22.00;99.90
2571;DHT22;1295;51.130;6.732;2023-07-20T10:05:33;22.00;99.90
2571;DHT22;1295;51.130;6.732;2023-07-20T10:07:58;22.00;99.90
2571;DHT22;1295;51.130;6.732;2023-07-20T10:10:24;21.90;99.90
2571;DHT22;1295;51.130;6.732;2023-07-20T10:12:49;21.90;99.90
2571;DHT22;1295;51.130;6.732;2023-07-20T10:15:20;21.90;99.90
2571;DHT22;1295;51.130;6.732;2023-07-20T10:17:57;22.30;99.90
2571;DHT22;1295;51.130;6.732;2023-07-20T10:20:21;22.30;99.90
2571;DHT22;1295;51.130;6.732;2023-07-20T10:22:47;22.10;99.90
2571;DHT22;1295;51.130;6.732;2023-07-20T10:25:12;21.90;99.90
2571;DHT22;1295;51.130;6.732;2023-07-20T10:27:39;22.00;99.90
2571;DHT22;1295;51.130;6.732;2023-07-20T10:30:06;21.90;99.90
2571;DHT22;1295;51.130;6.732;2023-07-20T10:32:32;22.00;99.90
2571;DHT22;1295;51.130;6.732;2023-07-20T10:34:58;22.00;99.90
2571;DHT22;1295;51.130;6.732;2023-07-20T10:40:10;22.20;99.90
2571;DHT22;1295;51.130;6.732;2023-07-20T10:42:31;22.20;99.90
2571;DHT22;1295;51.130;6.732;2023-07-20T10:44:51;22.20;99.90
2571;DHT22;1295;51.130;6.732;2023-07-20T10:47:17;22.20;99.90
2571;DHT22;1295;51.130;6.732;2023-07-20T10:49:59;22.60;99.90
2571;DHT22;1295;51.130;6.732;2023-07-20T10:52:24;22.60;99.90
2571;DHT22;1295;51.130;6.732;2023-07-20T10:54:50;22.20;99.90
2571;DHT22;1295;51.130;6.732;2023-07-20T10:57:22;22.10;99.90
2571;DHT22;1295;51.130;6.732;2023-07-20T10:59:47;22.10;99.90
2571;DHT22;1295;51.130;6.732;2023-07-20T11:02:12;22.20;99.90
2571;DHT22;1295;51.130;6.732;2023-07-20T11:04:40;22.50;99.90
2571;DHT22;1295;51.130;6.732;2023-07-20T11:07:06;23.30;99.90
2571;DHT22;1295;51.130;6.732;2023-07-20T11:09:35;23.30;99.90
2571;DHT22;1295;51.130;6.732;2023-07-20T11:12:09;22.70;99.90
2571;DHT22;1295;51.130;6.732;2023-07-20T11:14:34;22.70;99.90
2571;DHT22;1295;51.130;6.732;2023-07-20T11:17:10;22.80;99.90
2571;DHT22;1295;51.130;6.732;2023-07-20T11:19:26;22.80;99.90
2571;DHT22;1295;51.130;6.732;2023-07-20T11:21:53;23.20;99.90
2571;DHT22;1295;51.130;6.732;2023-07-20T11:24:18;22.60;99.90
2571;DHT22;1295;51.130;6.732;2023-07-20T11:26:44;22.40;99.90
2571;DHT22;1295;51.130;6.732;2023-07-20T11:29:09;23.00;99.90
2571;DHT22;1295;51.130;6.732;2023-07-20T11:31:36;22.90;99.90
2571;DHT22;1295;51.130;6.732;2023-07-20T11:34:01;22.60;99.90
2571;DHT22;1295;51.130;6.732;2023-07-20T11:36:26;22.60;99.90
2571;DHT22;1295;51.130;6.732;2023-07-20T11:38:52;22.60;99.90
2571;DHT22;1295;51.130;6.732;2023-07-20T11:41:17;22.50;99.90
2571;DHT22;1295;51.130;6.732;2023-07-20T11:43:43;22.50;99.90
2571;DHT22;1295;51.130;6.732;2023-07-20T11:46:09;22.50;99.90
2571;DHT22;1295;51.130;6.732;2023-07-20T11:48:35;23.00;99.90
2571;DHT22;1295;51.130;6.732;2023-07-20T11:51:00;23.30;99.90
2571;DHT22;1295;51.130;6.732;2023-07-20T11:53:26;23.90;99.90
2571;DHT22;1295;51.130;6.732;2023-07-20T11:55:52;23.30;99.90
2571;DHT22;1295;51.130;6.732;2023-07-20T11:58:17;23.30;99.90
2571;DHT22;1295;51.130;6.732;2023-07-20T12:00:43;23.00;99.90
2571;DHT22;1295;51.130;6.732;2023-07-20T12:03:09;22.80;99.90
2571;DHT22;1295;51.130;6.732;2023-07-20T12:05:34;22.60;99.90
2571;DHT22;1295;51.130;6.732;2023-07-20T12:08:00;22.50;99.90
2571;DHT22;1295;51.130;6.732;2023-07-20T12:10:27;22.40;99.90
2571;DHT22;1295;51.130;6.732;2023-07-20T12:12:52;22.40;99.90
2571;DHT22;1295;51.130;6.732;2023-07-20T12:15:22;22.50;99.90
2571;DHT22;1295;51.130;6.732;2023-07-20T12:17:49;22.60;99.90
2571;DHT22;1295;51.130;6.732;2023-07-20T12:20:12;22.70;99.90
2571;DHT22;1295;51.130;6.732;2023-07-20T12:22:39;23.10;99.90
2571;DHT22;1295;51.130;6.732;2023-07-20T12:25:05;22.70;99.90
2571;DHT22;1295;51.130;6.732;2023-07-20T12:27:31;22.60;99.90
2571;DHT22;1295;51.130;6.732;2023-07-20T12:29:56;22.70;99.90
2571;DHT22;1295;51.130;6.732;2023-07-20T12:32:22;22.70;99.90
2571;DHT22;1295;51.130;6.732;2023-07-20T12:34:48;22.50;99.90
2571;DHT22;1295;51.130;6.732;2023-07-20T12:37:17;22.50;99.90
2571;DHT22;1295;51.130;6.732;2023-07-20T12:39:40;22.40;99.90
2571;DHT22;1295;51.130;6.732;2023-07-20T12:42:06;22.50;99.90
2571;DHT22;1295;51.130;6.732;2023-07-20T12:44:31;22.50;99.90
2571;DHT22;1295;51.130;6.732;2023-07-20T12:46:58;23.10;99.90
2571;DHT22;1295;51.130;6.732;2023-07-20T12:49:23;23.10;99.90
2571;DHT22;1295;51.130;6.732;2023-07-20T12:51:49;23.20;99.90
2571;DHT22;1295;51.130;6.732;2023-07-20T12:54:15;23.80;99.90
2571;DHT22;1295;51.130;6.732;2023-07-20T12:56:40;24.10;99.90
2571;DHT22;1295;51.130;6.732;2023-07-20T12:59:06;23.80;99.90
2571;DHT22;1295;51.130;6.732;2023-07-20T13:01:31;24.10;99.90
2571;DHT22;1295;51.130;6.732;2023-07-20T13:03:57;23.50;99.90
2571;DHT22;1295;51.130;6.732;2023-07-20T13:06:23;23.40;99.90
2571;DHT22;1295;51.130;6.732;2023-07-20T13:08:48;23.20;99.90
2571;DHT22;1295;51.130;6.732;2023-07-20T13:11:14;23.50;99.90
2571;DHT22;1295;51.130;6.732;2023-07-20T13:13:40;23.20;99.90
2571;DHT22;1295;51.130;6.732;2023-07-20T13:16:06;23.20;99.90
2571;DHT22;1295;51.130;6.732;2023-07-20T13:18:32;23.20;99.90
2571;DHT22;1295;51.130;6.732;2023-07-20T13:20:58;23.10;99.90
2571;DHT22;1295;51.130;6.732;2023-07-20T13:23:24;23.00;99.90
2571;DHT22;1295;51.130;6.732;2023-07-20T13:25:49;23.00;99.90
2571;DHT22;1295;51.130;6.732;2023-07-20T13:28:15;23.00;99.90
2571;DHT22;1295;51.130;6.732;2023-07-20T13:30:41;23.20;99.90
2571;DHT22;1295;51.130;6.732;2023-07-20T13:33:06;23.30;99.90
2571;DHT22;1295;51.130;6.732;2023-07-20T13:35:32;23.10;99.90
2571;DHT22;1295;51.130;6.732;2023-07-20T13:37:57;23.10;99.90
2571;DHT22;1295;51.130;6.732;2023-07-20T13:40:23;23.30;99.90
2571;DHT22;1295;51.130;6.732;2023-07-20T13:42:49;23.10;99.90
2571;DHT22;1295;51.130;6.732;2023-07-20T13:45:14;23.10;99.90
2571;DHT22;1295;51.130;6.732;2023-07-20T13:47:40;23.40;99.90
2571;DHT22;1295;51.130;6.732;2023-07-20T13:50:06;23.10;99.90
2571;DHT22;1295;51.130;6.732;2023-07-20T13:52:33;22.90;99.90
2571;DHT22;1295;51.130;6.732;2023-07-20T13:54:58;22.90;99.90
2571;DHT22;1295;51.130;6.732;2023-07-20T13:57:24;22.90;99.90
2571;DHT22;1295;51.130;6.732;2023-07-20T13:59:50;22.90;99.90
2571;DHT22;1295;51.130;6.732;2023-07-20T14:02:15;22.90;99.90
2571;DHT22;1295;51.130;6.732;2023-07-20T14:04:42;22.80;99.90
2571;DHT22;1295;51.130;6.732;2023-07-20T14:07:14;22.70;99.90
2571;DHT22;1295;51.130;6.732;2023-07-20T14:09:40;22.70;99.90
2571;DHT22;1295;51.130;6.732;2023-07-20T14:12:06;22.60;99.90
2571;DHT22;1295;51.130;6.732;2023-07-20T14:14:32;22.60;99.90
2571;DHT22;1295;51.130;6.732;2023-07-20T14:16:58;22.70;99.90
2571;DHT22;1295;51.130;6.732;2023-07-20T14:19:23;22.80;99.90
2571;DHT22;1295;51.130;6.732;2023-07-20T14:21:49;22.80;99.90
2571;DHT22;1295;51.130;6.732;2023-07-20T14:24:15;22.80;99.90
2571;DHT22;1295;51.130;6.732;2023-07-20T14:26:41;22.80;99.90
2571;DHT22;1295;51.130;6.732;2023-07-20T14:29:07;22.80;99.90
2571;DHT22;1295;51.130;6.732;2023-07-20T14:31:32;22.90;99.90
2571;DHT22;1295;51.130;6.732;2023-07-20T14:33:59;23.00;99.90
2571;DHT22;1295;51.130;6.732;2023-07-20T14:36:24;22.90;99.90
2571;DHT22;1295;51.130;6.732;2023-07-20T14:38:50;22.90;99.90
2571;DHT22;1295;51.130;6.732;2023-07-20T14:41:16;23.00;99.90
2571;DHT22;1295;51.130;6.732;2023-07-20T14:43:41;23.00;99.90
2571;DHT22;1295;51.130;6.732;2023-07-20T14:46:07;23.00;99.90
2571;DHT22;1295;51.130;6.732;2023-07-20T14:48:33;23.00;99.90
2571;DHT22;1295;51.130;6.732;2023-07-20T14:50:59;23.10;99.90
2571;DHT22;1295;51.130;6.732;2023-07-20T14:53:25;23.00;99.90
2571;DHT22;1295;51.130;6.732;2023-07-20T14:55:51;23.00;99.90
2571;DHT22;1295;51.130;6.732;2023-07-20T14:58:16;23.00;99.90
2571;DHT22;1295;51.130;6.732;2023-07-20T15:00:42;23.00;99.90
2571;DHT22;1295;51.130;6.732;2023-07-20T15:03:08;23.00;99.90
2571;DHT22;1295;51.130;6.732;2023-07-20T15:05:33;23.00;99.90
2571;DHT22;1295;51.130;6.732;2023-07-20T15:07:59;23.10;99.90
2571;DHT22;1295;51.130;6.732;2023-07-20T15:10:25;23.10;99.90
2571;DHT22;1295;51.130;6.732;2023-07-20T15:12:50;23.10;99.90
2571;DHT22;1295;51.130;6.732;2023-07-20T15:15:16;23.10;99.90
2571;DHT22;1295;51.130;6.732;2023-07-20T15:17:42;23.10;99.90
2571;DHT22;1295;51.130;6.732;2023-07-20T15:20:10;23.20;99.90
2571;DHT22;1295;51.130;6.732;2023-07-20T15:22:34;23.20;99.90
2571;DHT22;1295;51.130;6.732;2023-07-20T15:25:00;23.20;99.90
2571;DHT22;1295;51.130;6.732;2023-07-20T15:27:25;23.20;99.90
2571;DHT22;1295;51.130;6.732;2023-07-20T15:29:51;23.10;99.90
2571;DHT22;1295;51.130;6.732;2023-07-20T15:32:17;23.10;99.90
2571;DHT22;1295;51.130;6.732;2023-07-20T15:34:43;23.20;99.90
2571;DHT22;1295;51.130;6.732;2023-07-20T15:37:10;23.20;99.90
2571;DHT22;1295;51.130;6.732;2023-07-20T15:39:35;23.20;99.90
2571;DHT22;1295;51.130;6.732;2023-07-20T15:42:01;23.20;99.90
2571;DHT22;1295;51.130;6.732;2023-07-20T15:44:26;23.30;99.90
2571;DHT22;1295;51.130;6.732;2023-07-20T15:46:52;23.20;99.90
2571;DHT22;1295;51.130;6.732;2023-07-20T15:49:18;23.20;99.90
2571;DHT22;1295;51.130;6.732;2023-07-20T15:51:43;23.20;99.90
2571;DHT22;1295;51.130;6.732;2023-07-20T15:54:09;23.20;99.90
2571;DHT22;1295;51.130;6.732;2023-07-20T15:56:35;23.20;99.90
2571;DHT22;1295;51.130;6.732;2023-07-20T15:59:00;23.20;99.90